sensor_id;sensor_type;location;lat;lon;timestamp;P1;durP1;ratioP1;P2;durP2;ratioP2
59972;SDS011;55298;-36.624;-64.282;2023-03-11T00:00:44;4.82;;;3.60;;
59972;SDS011;55298;-36.624;-64.282;2023-03-11T00:03:17;5.32;;;4.03;;
59972;SDS011;55298;-36.624;-64.282;2023-03-11T00:05:47;6.13;;;4.40;;
59972;SDS011;55298;-36.624;-64.282;2023-03-11T00:08:19;4.50;;;4.15;;
59972;SDS011;55298;-36.624;-64.282;2023-03-11T00:10:51;6.90;;;4.40;;
59972;SDS011;55298;-36.624;-64.282;2023-03-11T00:13:20;5.50;;;4.78;;
59972;SDS011;55298;-36.624;-64.282;2023-03-11T00:15:49;7.32;;;4.18;;
59972;SDS011;55298;-36.624;-64.282;2023-03-11T00:18:23;4.30;;;3.90;;
59972;SDS011;55298;-36.624;-64.282;2023-03-11T00:20:53;4.10;;;3.80;;
59972;SDS011;55298;-36.624;-64.282;2023-03-11T00:23:21;3.92;;;3.58;;
59972;SDS011;55298;-36.624;-64.282;2023-03-11T00:25:50;6.38;;;4.18;;
59972;SDS011;55298;-36.624;-64.282;2023-03-11T00:28:18;3.90;;;3.50;;
59972;SDS011;55298;-36.624;-64.282;2023-03-11T00:30:50;3.65;;;3.35;;
59972;SDS011;55298;-36.624;-64.282;2023-03-11T00:33:19;3.65;;;3.35;;
59972;SDS011;55298;-36.624;-64.282;2023-03-11T00:35:49;3.15;;;2.95;;
59972;SDS011;55298;-36.624;-64.282;2023-03-11T00:38:17;3.10;;;2.90;;
59972;SDS011;55298;-36.624;-64.282;2023-03-11T00:40:45;4.40;;;3.30;;
59972;SDS011;55298;-36.624;-64.282;2023-03-11T00:43:15;3.75;;;3.20;;
59972;SDS011;55298;-36.624;-64.282;2023-03-11T00:45:43;3.33;;;3.03;;
59972;SDS011;55298;-36.624;-64.282;2023-03-11T00:48:13;2.90;;;2.70;;
59972;SDS011;55298;-36.624;-64.282;2023-03-11T00:50:41;2.90;;;2.70;;
59972;SDS011;55298;-36.624;-64.282;2023-03-11T00:53:09;3.13;;;2.80;;
59972;SDS011;55298;-36.624;-64.282;2023-03-11T00:55:37;4.88;;;4.20;;
59972;SDS011;55298;-36.624;-64.282;2023-03-11T00:58:06;8.40;;;5.10;;
59972;SDS011;55298;-36.624;-64.282;2023-03-11T01:00:36;15.07;;;6.32;;
59972;SDS011;55298;-36.624;-64.282;2023-03-11T01:03:03;8.40;;;5.88;;
59972;SDS011;55298;-36.624;-64.282;2023-03-11T01:05:32;7.80;;;6.95;;
59972;SDS011;55298;-36.624;-64.282;2023-03-11T01:08:01;7.20;;;6.53;;
59972;SDS011;55298;-36.624;-64.282;2023-03-11T01:10:33;6.57;;;5.57;;
59972;SDS011;55298;-36.624;-64.282;2023-03-11T01:13:02;6.82;;;6.13;;
59972;SDS011;55298;-36.624;-64.282;2023-03-11T01:15:31;8.07;;;6.00;;
59972;SDS011;55298;-36.624;-64.282;2023-03-11T01:18:01;5.68;;;5.10;;
59972;SDS011;55298;-36.624;-64.282;2023-03-11T01:20:30;5.90;;;5.40;;
59972;SDS011;55298;-36.624;-64.282;2023-03-11T01:22:57;7.55;;;6.10;;
59972;SDS011;55298;-36.624;-64.282;2023-03-11T01:25:25;7.20;;;5.63;;
59972;SDS011;55298;-36.624;-64.282;2023-03-11T01:27:53;8.48;;;6.13;;
59972;SDS011;55298;-36.624;-64.282;2023-03-11T01:30:22;6.57;;;5.68;;
59972;SDS011;55298;-36.624;-64.282;2023-03-11T01:32:51;8.30;;;6.82;;
59972;SDS011;55298;-36.624;-64.282;2023-03-11T01:35:21;7.50;;;6.65;;
59972;SDS011;55298;-36.624;-64.282;2023-03-11T01:37:51;7.13;;;6.13;;
59972;SDS011;55298;-36.624;-64.282;2023-03-11T01:40:26;6.38;;;4.72;;
59972;SDS011;55298;-36.624;-64.282;2023-03-11T01:43:46;4.93;;;3.85;;
59972;SDS011;55298;-36.624;-64.282;2023-03-11T01:48:54;6.60;;;5.43;;
59972;SDS011;55298;-36.624;-64.282;2023-03-11T01:51:32;8.95;;;7.93;;
59972;SDS011;55298;-36.624;-64.282;2023-03-11T01:54:11;10.77;;;7.90;;
59972;SDS011;55298;-36.624;-64.282;2023-03-11T01:56:44;6.18;;;5.35;;
59972;SDS011;55298;-36.624;-64.282;2023-03-11T01:59:14;5.63;;;4.20;;
59972;SDS011;55298;-36.624;-64.282;2023-03-11T02:02:00;5.78;;;3.90;;
59972;SDS011;55298;-36.624;-64.282;2023-03-11T02:04:39;4.95;;;4.45;;
59972;SDS011;55298;-36.624;-64.282;2023-03-11T02:07:08;7.55;;;6.00;;
59972;SDS011;55298;-36.624;-64.282;2023-03-11T02:09:37;8.85;;;6.28;;
59972;SDS011;55298;-36.624;-64.282;2023-03-11T02:12:05;5.13;;;4.63;;
59972;SDS011;55298;-36.624;-64.282;2023-03-11T02:14:37;7.15;;;5.28;;
59972;SDS011;55298;-36.624;-64.282;2023-03-11T02:17:11;5.85;;;5.05;;
59972;SDS011;55298;-36.624;-64.282;2023-03-11T02:22:26;7.70;;;5.22;;
59972;SDS011;55298;-36.624;-64.282;2023-03-11T02:27:58;4.70;;;4.20;;
59972;SDS011;55298;-36.624;-64.282;2023-03-11T02:30:29;4.75;;;3.05;;
59972;SDS011;55298;-36.624;-64.282;2023-03-11T02:33:00;2.88;;;2.65;;
59972;SDS011;55298;-36.624;-64.282;2023-03-11T02:35:28;6.28;;;3.20;;
59972;SDS011;55298;-36.624;-64.282;2023-03-11T02:37:56;2.97;;;2.65;;
59972;SDS011;55298;-36.624;-64.282;2023-03-11T02:40:29;3.25;;;2.70;;
59972;SDS011;55298;-36.624;-64.282;2023-03-11T02:43:06;3.65;;;3.00;;
59972;SDS011;55298;-36.624;-64.282;2023-03-11T02:45:38;2.55;;;2.35;;
59972;SDS011;55298;-36.624;-64.282;2023-03-11T02:48:09;2.92;;;2.60;;
59972;SDS011;55298;-36.624;-64.282;2023-03-11T02:50:38;3.10;;;2.78;;
59972;SDS011;55298;-36.624;-64.282;2023-03-11T02:53:09;3.40;;;2.47;;
59972;SDS011;55298;-36.624;-64.282;2023-03-11T02:55:36;2.50;;;2.25;;
59972;SDS011;55298;-36.624;-64.282;2023-03-11T02:58:04;2.72;;;2.50;;
59972;SDS011;55298;-36.624;-64.282;2023-03-11T03:00:32;3.25;;;2.75;;
59972;SDS011;55298;-36.624;-64.282;2023-03-11T03:03:00;2.85;;;2.47;;
59972;SDS011;55298;-36.624;-64.282;2023-03-11T03:05:28;2.42;;;2.20;;
59972;SDS011;55298;-36.624;-64.282;2023-03-11T03:07:58;3.65;;;3.35;;
59972;SDS011;55298;-36.624;-64.282;2023-03-11T03:10:27;4.00;;;2.50;;
59972;SDS011;55298;-36.624;-64.282;2023-03-11T03:12:55;4.00;;;2.50;;
59972;SDS011;55298;-36.624;-64.282;2023-03-11T03:15:22;3.05;;;2.50;;
59972;SDS011;55298;-36.624;-64.282;2023-03-11T03:17:50;5.55;;;2.90;;
59972;SDS011;55298;-36.624;-64.282;2023-03-11T03:20:18;2.85;;;2.60;;
59972;SDS011;55298;-36.624;-64.282;2023-03-11T03:22:47;2.95;;;2.33;;
59972;SDS011;55298;-36.624;-64.282;2023-03-11T03:25:16;3.35;;;2.50;;
59972;SDS011;55298;-36.624;-64.282;2023-03-11T03:27:45;2.55;;;2.35;;
59972;SDS011;55298;-36.624;-64.282;2023-03-11T03:30:17;3.28;;;2.50;;
59972;SDS011;55298;-36.624;-64.282;2023-03-11T03:32:47;2.70;;;2.50;;
59972;SDS011;55298;-36.624;-64.282;2023-03-11T03:35:15;2.53;;;2.10;;
59972;SDS011;55298;-36.624;-64.282;2023-03-11T03:37:43;3.70;;;2.13;;
59972;SDS011;55298;-36.624;-64.282;2023-03-11T03:40:10;2.55;;;2.30;;
59972;SDS011;55298;-36.624;-64.282;2023-03-11T03:42:38;2.90;;;2.35;;
59972;SDS011;55298;-36.624;-64.282;2023-03-11T03:45:06;2.90;;;2.70;;
59972;SDS011;55298;-36.624;-64.282;2023-03-11T03:47:35;3.97;;;2.10;;
59972;SDS011;55298;-36.624;-64.282;2023-03-11T03:50:03;2.42;;;2.33;;
59972;SDS011;55298;-36.624;-64.282;2023-03-11T03:52:33;2.60;;;2.40;;
59972;SDS011;55298;-36.624;-64.282;2023-03-11T03:55:03;2.45;;;2.25;;
59972;SDS011;55298;-36.624;-64.282;2023-03-11T03:57:31;4.30;;;2.40;;
59972;SDS011;55298;-36.624;-64.282;2023-03-11T03:59:59;2.20;;;2.10;;
59972;SDS011;55298;-36.624;-64.282;2023-03-11T04:02:26;3.15;;;2.40;;
59972;SDS011;55298;-36.624;-64.282;2023-03-11T04:04:54;2.47;;;2.28;;
59972;SDS011;55298;-36.624;-64.282;2023-03-11T04:07:22;2.83;;;2.20;;
59972;SDS011;55298;-36.624;-64.282;2023-03-11T04:09:50;2.20;;;2.10;;
59972;SDS011;55298;-36.624;-64.282;2023-03-11T04:12:17;2.90;;;2.15;;
59972;SDS011;55298;-36.624;-64.282;2023-03-11T04:14:45;2.65;;;1.90;;
59972;SDS011;55298;-36.624;-64.282;2023-03-11T04:17:13;2.20;;;2.10;;
59972;SDS011;55298;-36.624;-64.282;2023-03-11T04:19:42;4.60;;;2.50;;
59972;SDS011;55298;-36.624;-64.282;2023-03-11T04:22:10;2.22;;;2.00;;
59972;SDS011;55298;-36.624;-64.282;2023-03-11T04:24:38;2.38;;;2.08;;
59972;SDS011;55298;-36.624;-64.282;2023-03-11T04:27:05;2.03;;;1.92;;
59972;SDS011;55298;-36.624;-64.282;2023-03-11T04:29:33;2.40;;;2.20;;
59972;SDS011;55298;-36.624;-64.282;2023-03-11T04:32:01;2.53;;;2.05;;
59972;SDS011;55298;-36.624;-64.282;2023-03-11T04:34:28;2.40;;;2.20;;
59972;SDS011;55298;-36.624;-64.282;2023-03-11T04:36:56;2.10;;;2.00;;
59972;SDS011;55298;-36.624;-64.282;2023-03-11T04:39:23;2.70;;;2.10;;
59972;SDS011;55298;-36.624;-64.282;2023-03-11T04:41:51;3.90;;;2.10;;
59972;SDS011;55298;-36.624;-64.282;2023-03-11T04:44:19;2.33;;;2.13;;
59972;SDS011;55298;-36.624;-64.282;2023-03-11T04:46:46;2.10;;;2.00;;
59972;SDS011;55298;-36.624;-64.282;2023-03-11T04:49:13;2.17;;;2.08;;
59972;SDS011;55298;-36.624;-64.282;2023-03-11T04:51:41;2.33;;;1.90;;
59972;SDS011;55298;-36.624;-64.282;2023-03-11T04:54:09;2.25;;;2.10;;
59972;SDS011;55298;-36.624;-64.282;2023-03-11T04:56:37;2.83;;;2.20;;
59972;SDS011;55298;-36.624;-64.282;2023-03-11T04:59:04;2.33;;;2.00;;
59972;SDS011;55298;-36.624;-64.282;2023-03-11T05:01:32;2.30;;;2.10;;
59972;SDS011;55298;-36.624;-64.282;2023-03-11T05:04:00;2.20;;;2.10;;
59972;SDS011;55298;-36.624;-64.282;2023-03-11T05:06:28;3.20;;;2.45;;
59972;SDS011;55298;-36.624;-64.282;2023-03-11T05:08:55;2.65;;;2.45;;
59972;SDS011;55298;-36.624;-64.282;2023-03-11T05:11:23;3.20;;;2.30;;
59972;SDS011;55298;-36.624;-64.282;2023-03-11T05:13:51;2.58;;;2.38;;
59972;SDS011;55298;-36.624;-64.282;2023-03-11T05:16:19;2.47;;;2.28;;
59972;SDS011;55298;-36.624;-64.282;2023-03-11T05:18:47;2.47;;;2.22;;
59972;SDS011;55298;-36.624;-64.282;2023-03-11T05:21:14;2.28;;;2.17;;
59972;SDS011;55298;-36.624;-64.282;2023-03-11T05:23:42;2.10;;;2.00;;
59972;SDS011;55298;-36.624;-64.282;2023-03-11T05:26:10;2.40;;;2.20;;
59972;SDS011;55298;-36.624;-64.282;2023-03-11T05:28:37;2.15;;;2.05;;
59972;SDS011;55298;-36.624;-64.282;2023-03-11T05:31:07;2.25;;;2.05;;
59972;SDS011;55298;-36.624;-64.282;2023-03-11T05:33:36;2.20;;;2.00;;
59972;SDS011;55298;-36.624;-64.282;2023-03-11T05:36:05;3.30;;;2.28;;
59972;SDS011;55298;-36.624;-64.282;2023-03-11T05:38:35;2.00;;;1.90;;
59972;SDS011;55298;-36.624;-64.282;2023-03-11T05:41:03;3.67;;;2.30;;
59972;SDS011;55298;-36.624;-64.282;2023-03-11T05:43:31;2.05;;;1.95;;
59972;SDS011;55298;-36.624;-64.282;2023-03-11T05:45:59;2.50;;;2.30;;
59972;SDS011;55298;-36.624;-64.282;2023-03-11T05:48:26;2.38;;;2.20;;
59972;SDS011;55298;-36.624;-64.282;2023-03-11T05:50:54;4.05;;;2.28;;
59972;SDS011;55298;-36.624;-64.282;2023-03-11T05:53:21;2.75;;;2.30;;
59972;SDS011;55298;-36.624;-64.282;2023-03-11T05:55:57;2.70;;;2.50;;
59972;SDS011;55298;-36.624;-64.282;2023-03-11T05:58:26;2.25;;;2.15;;
59972;SDS011;55298;-36.624;-64.282;2023-03-11T06:00:55;2.75;;;2.20;;
59972;SDS011;55298;-36.624;-64.282;2023-03-11T06:03:24;2.20;;;2.10;;
59972;SDS011;55298;-36.624;-64.282;2023-03-11T06:05:52;2.75;;;2.55;;
59972;SDS011;55298;-36.624;-64.282;2023-03-11T06:08:20;2.78;;;2.42;;
59972;SDS011;55298;-36.624;-64.282;2023-03-11T06:10:47;2.60;;;2.40;;
59972;SDS011;55298;-36.624;-64.282;2023-03-11T06:13:15;2.60;;;2.40;;
59972;SDS011;55298;-36.624;-64.282;2023-03-11T06:15:43;2.40;;;2.20;;
59972;SDS011;55298;-36.624;-64.282;2023-03-11T06:18:10;2.83;;;2.30;;
59972;SDS011;55298;-36.624;-64.282;2023-03-11T06:20:39;3.50;;;2.60;;
59972;SDS011;55298;-36.624;-64.282;2023-03-11T06:23:07;2.70;;;2.50;;
59972;SDS011;55298;-36.624;-64.282;2023-03-11T06:25:35;3.05;;;2.45;;
59972;SDS011;55298;-36.624;-64.282;2023-03-11T06:28:03;3.75;;;2.60;;
59972;SDS011;55298;-36.624;-64.282;2023-03-11T06:30:30;2.80;;;2.60;;
59972;SDS011;55298;-36.624;-64.282;2023-03-11T06:32:58;2.88;;;2.67;;
59972;SDS011;55298;-36.624;-64.282;2023-03-11T06:35:26;3.33;;;2.65;;
59972;SDS011;55298;-36.624;-64.282;2023-03-11T06:37:53;2.58;;;2.38;;
59972;SDS011;55298;-36.624;-64.282;2023-03-11T06:40:21;2.60;;;2.40;;
59972;SDS011;55298;-36.624;-64.282;2023-03-11T06:42:48;2.60;;;2.50;;
59972;SDS011;55298;-36.624;-64.282;2023-03-11T06:45:17;3.50;;;2.45;;
59972;SDS011;55298;-36.624;-64.282;2023-03-11T06:47:44;2.72;;;2.53;;
59972;SDS011;55298;-36.624;-64.282;2023-03-11T06:50:12;2.83;;;2.63;;
59972;SDS011;55298;-36.624;-64.282;2023-03-11T06:52:39;3.15;;;2.55;;
59972;SDS011;55298;-36.624;-64.282;2023-03-11T06:55:07;2.75;;;2.58;;
59972;SDS011;55298;-36.624;-64.282;2023-03-11T06:57:35;2.80;;;2.60;;
59972;SDS011;55298;-36.624;-64.282;2023-03-11T07:00:03;2.95;;;2.63;;
59972;SDS011;55298;-36.624;-64.282;2023-03-11T07:02:32;3.63;;;2.83;;
59972;SDS011;55298;-36.624;-64.282;2023-03-11T07:05:00;3.03;;;2.75;;
59972;SDS011;55298;-36.624;-64.282;2023-03-11T07:07:27;2.95;;;2.60;;
59972;SDS011;55298;-36.624;-64.282;2023-03-11T07:09:55;2.90;;;2.70;;
59972;SDS011;55298;-36.624;-64.282;2023-03-11T07:12:23;3.05;;;2.85;;
59972;SDS011;55298;-36.624;-64.282;2023-03-11T07:14:57;3.10;;;2.80;;
59972;SDS011;55298;-36.624;-64.282;2023-03-11T07:17:26;2.65;;;2.55;;
59972;SDS011;55298;-36.624;-64.282;2023-03-11T07:19:54;2.80;;;2.60;;
59972;SDS011;55298;-36.624;-64.282;2023-03-11T07:22:22;2.90;;;2.70;;
59972;SDS011;55298;-36.624;-64.282;2023-03-11T07:24:50;3.03;;;2.83;;
59972;SDS011;55298;-36.624;-64.282;2023-03-11T07:27:18;3.40;;;2.80;;
59972;SDS011;55298;-36.624;-64.282;2023-03-11T07:29:46;2.88;;;2.67;;
59972;SDS011;55298;-36.624;-64.282;2023-03-11T07:32:14;2.88;;;2.67;;
59972;SDS011;55298;-36.624;-64.282;2023-03-11T07:34:41;2.72;;;2.60;;
59972;SDS011;55298;-36.624;-64.282;2023-03-11T07:37:09;3.00;;;2.80;;
59972;SDS011;55298;-36.624;-64.282;2023-03-11T07:39:36;3.20;;;2.90;;
59972;SDS011;55298;-36.624;-64.282;2023-03-11T07:42:05;3.03;;;2.75;;
59972;SDS011;55298;-36.624;-64.282;2023-03-11T07:44:33;3.17;;;2.92;;
59972;SDS011;55298;-36.624;-64.282;2023-03-11T07:47:01;3.17;;;2.88;;
59972;SDS011;55298;-36.624;-64.282;2023-03-11T07:49:30;3.20;;;2.92;;
59972;SDS011;55298;-36.624;-64.282;2023-03-11T07:51:57;3.10;;;2.90;;
59972;SDS011;55298;-36.624;-64.282;2023-03-11T07:54:26;4.10;;;3.08;;
59972;SDS011;55298;-36.624;-64.282;2023-03-11T07:56:53;2.90;;;2.70;;
59972;SDS011;55298;-36.624;-64.282;2023-03-11T07:59:21;3.17;;;2.97;;
59972;SDS011;55298;-36.624;-64.282;2023-03-11T08:01:49;3.42;;;3.03;;
59972;SDS011;55298;-36.624;-64.282;2023-03-11T08:04:16;3.42;;;3.13;;
59972;SDS011;55298;-36.624;-64.282;2023-03-11T08:06:44;4.05;;;2.97;;
59972;SDS011;55298;-36.624;-64.282;2023-03-11T08:09:13;3.28;;;3.05;;
59972;SDS011;55298;-36.624;-64.282;2023-03-11T08:11:40;3.60;;;3.30;;
59972;SDS011;55298;-36.624;-64.282;2023-03-11T08:14:08;3.40;;;3.20;;
59972;SDS011;55298;-36.624;-64.282;2023-03-11T08:16:37;3.70;;;3.38;;
59972;SDS011;55298;-36.624;-64.282;2023-03-11T08:19:06;3.60;;;3.30;;
59972;SDS011;55298;-36.624;-64.282;2023-03-11T08:21:36;3.95;;;3.65;;
59972;SDS011;55298;-36.624;-64.282;2023-03-11T08:24:03;3.97;;;3.58;;
59972;SDS011;55298;-36.624;-64.282;2023-03-11T08:26:31;3.83;;;3.47;;
59972;SDS011;55298;-36.624;-64.282;2023-03-11T08:28:59;4.10;;;3.80;;
59972;SDS011;55298;-36.624;-64.282;2023-03-11T08:31:28;3.67;;;3.38;;
59972;SDS011;55298;-36.624;-64.282;2023-03-11T08:33:58;3.55;;;3.25;;
59972;SDS011;55298;-36.624;-64.282;2023-03-11T08:36:28;3.92;;;3.70;;
59972;SDS011;55298;-36.624;-64.282;2023-03-11T08:38:55;4.25;;;3.92;;
59972;SDS011;55298;-36.624;-64.282;2023-03-11T08:41:24;4.00;;;3.70;;
59972;SDS011;55298;-36.624;-64.282;2023-03-11T08:43:52;3.92;;;3.63;;
59972;SDS011;55298;-36.624;-64.282;2023-03-11T08:46:24;5.28;;;4.07;;
59972;SDS011;55298;-36.624;-64.282;2023-03-11T08:48:54;4.82;;;3.75;;
59972;SDS011;55298;-36.624;-64.282;2023-03-11T08:51:23;4.45;;;3.53;;
59972;SDS011;55298;-36.624;-64.282;2023-03-11T08:53:51;6.10;;;3.83;;
59972;SDS011;55298;-36.624;-64.282;2023-03-11T08:56:19;6.47;;;4.10;;
59972;SDS011;55298;-36.624;-64.282;2023-03-11T08:58:47;4.45;;;4.05;;
59972;SDS011;55298;-36.624;-64.282;2023-03-11T09:01:15;3.97;;;3.60;;
59972;SDS011;55298;-36.624;-64.282;2023-03-11T09:03:44;4.20;;;3.80;;
59972;SDS011;55298;-36.624;-64.282;2023-03-11T09:06:13;3.85;;;3.30;;
59972;SDS011;55298;-36.624;-64.282;2023-03-11T09:08:42;3.88;;;3.58;;
59972;SDS011;55298;-36.624;-64.282;2023-03-11T09:11:11;4.13;;;3.67;;
59972;SDS011;55298;-36.624;-64.282;2023-03-11T09:13:40;3.75;;;3.45;;
59972;SDS011;55298;-36.624;-64.282;2023-03-11T09:16:11;3.83;;;3.53;;
59972;SDS011;55298;-36.624;-64.282;2023-03-11T09:18:41;4.13;;;3.72;;
59972;SDS011;55298;-36.624;-64.282;2023-03-11T09:21:09;3.92;;;3.60;;
59972;SDS011;55298;-36.624;-64.282;2023-03-11T09:23:36;4.20;;;3.72;;
59972;SDS011;55298;-36.624;-64.282;2023-03-11T09:26:05;4.00;;;3.60;;
59972;SDS011;55298;-36.624;-64.282;2023-03-11T09:28:32;9.65;;;5.00;;
59972;SDS011;55298;-36.624;-64.282;2023-03-11T09:31:00;5.57;;;4.18;;
59972;SDS011;55298;-36.624;-64.282;2023-03-11T09:33:28;4.20;;;3.80;;
59972;SDS011;55298;-36.624;-64.282;2023-03-11T09:35:57;4.15;;;3.75;;
59972;SDS011;55298;-36.624;-64.282;2023-03-11T09:38:24;5.63;;;3.78;;
59972;SDS011;55298;-36.624;-64.282;2023-03-11T09:41:05;3.80;;;3.50;;
59972;SDS011;55298;-36.624;-64.282;2023-03-11T09:43:46;4.72;;;3.50;;
59972;SDS011;55298;-36.624;-64.282;2023-03-11T09:46:37;4.25;;;3.95;;
59972;SDS011;55298;-36.624;-64.282;2023-03-11T09:49:33;4.03;;;3.72;;
59972;SDS011;55298;-36.624;-64.282;2023-03-11T09:55:34;4.63;;;4.03;;
59972;SDS011;55298;-36.624;-64.282;2023-03-11T09:58:14;3.95;;;3.65;;
59972;SDS011;55298;-36.624;-64.282;2023-03-11T10:00:53;5.35;;;4.85;;
59972;SDS011;55298;-36.624;-64.282;2023-03-11T10:03:26;4.80;;;4.40;;
59972;SDS011;55298;-36.624;-64.282;2023-03-11T10:06:03;5.13;;;4.15;;
59972;SDS011;55298;-36.624;-64.282;2023-03-11T10:08:46;4.47;;;4.18;;
59972;SDS011;55298;-36.624;-64.282;2023-03-11T10:11:33;6.88;;;4.57;;
59972;SDS011;55298;-36.624;-64.282;2023-03-11T10:14:16;4.43;;;4.13;;
59972;SDS011;55298;-36.624;-64.282;2023-03-11T10:22:51;5.50;;;4.85;;
59972;SDS011;55298;-36.624;-64.282;2023-03-11T10:28:30;4.60;;;4.20;;
59972;SDS011;55298;-36.624;-64.282;2023-03-11T10:31:07;5.53;;;4.90;;
59972;SDS011;55298;-36.624;-64.282;2023-03-11T10:33:55;4.70;;;4.30;;
59972;SDS011;55298;-36.624;-64.282;2023-03-11T10:36:33;4.95;;;4.55;;
59972;SDS011;55298;-36.624;-64.282;2023-03-11T10:39:10;6.32;;;4.38;;
59972;SDS011;55298;-36.624;-64.282;2023-03-11T10:44:22;4.72;;;4.20;;
59972;SDS011;55298;-36.624;-64.282;2023-03-11T10:46:59;5.20;;;4.60;;
59972;SDS011;55298;-36.624;-64.282;2023-03-11T10:49:29;4.95;;;4.45;;
59972;SDS011;55298;-36.624;-64.282;2023-03-11T10:51:57;5.35;;;4.57;;
59972;SDS011;55298;-36.624;-64.282;2023-03-11T10:54:33;5.82;;;4.60;;
59972;SDS011;55298;-36.624;-64.282;2023-03-11T11:00:04;4.30;;;3.90;;
59972;SDS011;55298;-36.624;-64.282;2023-03-11T11:02:50;4.70;;;3.95;;
59972;SDS011;55298;-36.624;-64.282;2023-03-11T11:05:26;8.88;;;8.05;;
59972;SDS011;55298;-36.624;-64.282;2023-03-11T11:11:18;6.20;;;4.10;;
59972;SDS011;55298;-36.624;-64.282;2023-03-11T11:13:27;4.60;;;4.05;;
59972;SDS011;55298;-36.624;-64.282;2023-03-11T11:16:00;4.43;;;4.03;;
59972;SDS011;55298;-36.624;-64.282;2023-03-11T11:18:46;4.60;;;4.20;;
59972;SDS011;55298;-36.624;-64.282;2023-03-11T11:21:46;5.55;;;4.78;;
59972;SDS011;55298;-36.624;-64.282;2023-03-11T11:24:24;6.55;;;3.88;;
59972;SDS011;55298;-36.624;-64.282;2023-03-11T11:29:32;4.45;;;4.05;;
59972;SDS011;55298;-36.624;-64.282;2023-03-11T11:34:56;5.80;;;4.00;;
59972;SDS011;55298;-36.624;-64.282;2023-03-11T11:37:34;5.50;;;4.78;;
59972;SDS011;55298;-36.624;-64.282;2023-03-11T11:40:18;4.68;;;3.70;;
59972;SDS011;55298;-36.624;-64.282;2023-03-11T11:43:00;4.35;;;3.88;;
59972;SDS011;55298;-36.624;-64.282;2023-03-11T11:45:38;7.68;;;6.95;;
59972;SDS011;55298;-36.624;-64.282;2023-03-11T11:48:17;3.70;;;3.40;;
59972;SDS011;55298;-36.624;-64.282;2023-03-11T11:50:52;4.53;;;3.80;;
59972;SDS011;55298;-36.624;-64.282;2023-03-11T11:56:07;4.95;;;4.03;;
59972;SDS011;55298;-36.624;-64.282;2023-03-11T11:58:35;4.93;;;3.17;;
59972;SDS011;55298;-36.624;-64.282;2023-03-11T12:06:38;7.00;;;3.95;;
59972;SDS011;55298;-36.624;-64.282;2023-03-11T12:09:21;3.78;;;3.47;;
59972;SDS011;55298;-36.624;-64.282;2023-03-11T12:12:00;4.70;;;3.47;;
59972;SDS011;55298;-36.624;-64.282;2023-03-11T12:14:45;5.63;;;3.75;;
59972;SDS011;55298;-36.624;-64.282;2023-03-11T12:17:21;9.25;;;4.05;;
59972;SDS011;55298;-36.624;-64.282;2023-03-11T12:19:53;5.10;;;3.85;;
59972;SDS011;55298;-36.624;-64.282;2023-03-11T12:22:37;3.97;;;3.67;;
59972;SDS011;55298;-36.624;-64.282;2023-03-11T12:25:22;5.72;;;3.95;;
59972;SDS011;55298;-36.624;-64.282;2023-03-11T12:30:47;8.05;;;4.32;;
59972;SDS011;55298;-36.624;-64.282;2023-03-11T12:38:55;6.15;;;4.50;;
59972;SDS011;55298;-36.624;-64.282;2023-03-11T12:41:29;5.55;;;3.95;;
59972;SDS011;55298;-36.624;-64.282;2023-03-11T12:44:20;4.90;;;4.30;;
59972;SDS011;55298;-36.624;-64.282;2023-03-11T12:47:03;5.78;;;3.88;;
59972;SDS011;55298;-36.624;-64.282;2023-03-11T12:49:45;5.03;;;3.85;;
59972;SDS011;55298;-36.624;-64.282;2023-03-11T12:52:16;5.93;;;3.97;;
59972;SDS011;55298;-36.624;-64.282;2023-03-11T12:54:47;4.80;;;4.40;;
59972;SDS011;55298;-36.624;-64.282;2023-03-11T12:57:39;4.00;;;3.70;;
59972;SDS011;55298;-36.624;-64.282;2023-03-11T13:00:25;4.60;;;4.20;;
59972;SDS011;55298;-36.624;-64.282;2023-03-11T13:03:16;4.97;;;3.60;;
59972;SDS011;55298;-36.624;-64.282;2023-03-11T13:06:11;6.22;;;4.03;;
59972;SDS011;55298;-36.624;-64.282;2023-03-11T13:08:54;4.32;;;3.72;;
59972;SDS011;55298;-36.624;-64.282;2023-03-11T13:11:28;5.87;;;3.80;;
59972;SDS011;55298;-36.624;-64.282;2023-03-11T13:14:21;7.60;;;4.90;;
59972;SDS011;55298;-36.624;-64.282;2023-03-11T13:16:54;5.57;;;3.75;;
59972;SDS011;55298;-36.624;-64.282;2023-03-11T13:19:50;14.73;;;8.23;;
59972;SDS011;55298;-36.624;-64.282;2023-03-11T13:28:01;4.65;;;4.00;;
59972;SDS011;55298;-36.624;-64.282;2023-03-11T13:30:58;4.70;;;3.60;;
59972;SDS011;55298;-36.624;-64.282;2023-03-11T13:42:30;6.50;;;3.90;;
59972;SDS011;55298;-36.624;-64.282;2023-03-11T13:45:11;3.85;;;3.55;;
59972;SDS011;55298;-36.624;-64.282;2023-03-11T13:47:57;4.13;;;3.53;;
59972;SDS011;55298;-36.624;-64.282;2023-03-11T13:50:34;4.15;;;3.75;;
59972;SDS011;55298;-36.624;-64.282;2023-03-11T13:53:07;7.07;;;3.53;;
59972;SDS011;55298;-36.624;-64.282;2023-03-11T13:55:44;4.65;;;3.67;;
59972;SDS011;55298;-36.624;-64.282;2023-03-11T13:58:18;5.00;;;3.45;;
59972;SDS011;55298;-36.624;-64.282;2023-03-11T14:00:48;5.82;;;3.50;;
59972;SDS011;55298;-36.624;-64.282;2023-03-11T14:03:18;4.45;;;3.40;;
59972;SDS011;55298;-36.624;-64.282;2023-03-11T14:05:54;6.03;;;4.20;;
59972;SDS011;55298;-36.624;-64.282;2023-03-11T14:08:28;5.90;;;4.05;;
59972;SDS011;55298;-36.624;-64.282;2023-03-11T14:10:58;4.63;;;3.60;;
59972;SDS011;55298;-36.624;-64.282;2023-03-11T14:13:29;6.35;;;3.63;;
59972;SDS011;55298;-36.624;-64.282;2023-03-11T14:16:05;6.15;;;3.47;;
59972;SDS011;55298;-36.624;-64.282;2023-03-11T14:18:38;6.65;;;3.60;;
59972;SDS011;55298;-36.624;-64.282;2023-03-11T14:21:11;7.13;;;4.70;;
59972;SDS011;55298;-36.624;-64.282;2023-03-11T14:23:47;5.30;;;3.72;;
59972;SDS011;55298;-36.624;-64.282;2023-03-11T14:26:18;8.50;;;4.05;;
59972;SDS011;55298;-36.624;-64.282;2023-03-11T14:28:48;6.35;;;3.95;;
59972;SDS011;55298;-36.624;-64.282;2023-03-11T14:31:21;7.68;;;3.95;;
59972;SDS011;55298;-36.624;-64.282;2023-03-11T14:33:55;10.15;;;5.70;;
59972;SDS011;55298;-36.624;-64.282;2023-03-11T14:36:30;5.78;;;4.47;;
59972;SDS011;55298;-36.624;-64.282;2023-03-11T14:41:55;6.00;;;4.90;;
59972;SDS011;55298;-36.624;-64.282;2023-03-11T14:44:51;7.70;;;4.32;;
59972;SDS011;55298;-36.624;-64.282;2023-03-11T14:50:05;8.13;;;5.40;;
59972;SDS011;55298;-36.624;-64.282;2023-03-11T14:52:47;5.57;;;5.00;;
59972;SDS011;55298;-36.624;-64.282;2023-03-11T14:55:28;7.63;;;6.53;;
59972;SDS011;55298;-36.624;-64.282;2023-03-11T14:58:04;8.18;;;6.55;;
59972;SDS011;55298;-36.624;-64.282;2023-03-11T15:00:42;8.35;;;7.07;;
59972;SDS011;55298;-36.624;-64.282;2023-03-11T15:03:22;6.35;;;4.93;;
59972;SDS011;55298;-36.624;-64.282;2023-03-11T15:05:58;4.73;;;4.00;;
59972;SDS011;55298;-36.624;-64.282;2023-03-11T15:08:31;6.57;;;4.07;;
59972;SDS011;55298;-36.624;-64.282;2023-03-11T15:11:12;5.82;;;4.05;;
59972;SDS011;55298;-36.624;-64.282;2023-03-11T15:13:50;7.07;;;4.22;;
59972;SDS011;55298;-36.624;-64.282;2023-03-11T15:19:00;9.02;;;4.95;;
59972;SDS011;55298;-36.624;-64.282;2023-03-11T15:21:37;6.97;;;3.53;;
59972;SDS011;55298;-36.624;-64.282;2023-03-11T15:24:17;5.20;;;4.07;;
59972;SDS011;55298;-36.624;-64.282;2023-03-11T15:29:28;4.28;;;3.72;;
59972;SDS011;55298;-36.624;-64.282;2023-03-11T15:31:57;6.32;;;4.38;;
59972;SDS011;55298;-36.624;-64.282;2023-03-11T15:34:26;8.77;;;4.20;;
59972;SDS011;55298;-36.624;-64.282;2023-03-11T15:36:59;6.03;;;3.80;;
59972;SDS011;55298;-36.624;-64.282;2023-03-11T15:42:14;5.80;;;4.47;;
59972;SDS011;55298;-36.624;-64.282;2023-03-11T15:44:59;4.78;;;3.70;;
59972;SDS011;55298;-36.624;-64.282;2023-03-11T15:47:37;6.47;;;4.18;;
59972;SDS011;55298;-36.624;-64.282;2023-03-11T15:52:49;7.80;;;4.78;;
59972;SDS011;55298;-36.624;-64.282;2023-03-11T15:55:18;5.97;;;3.80;;
59972;SDS011;55298;-36.624;-64.282;2023-03-11T15:57:47;8.00;;;3.80;;